KZ19 weather

Davison Army Airfield Heliport
Fort Belvoir, Virginia, United States

Public forecast

Using degrees Fahrenheit for public forecast. Weather courtesy of forecast.io.

METAR (pilot weather report)

Closest report is Davison Army Air Field, 0.1 nm (0.3 km) S. Retrieved 2019/05/21 01:56 UTC (1 hour ago):

KDAA 210156Z AUTO 30003KT 10SM CLR 25/12 A2984 RMK AO2 SLP107 T02520117 $

TAF (pilot weather forecast)

Closest forecast is Davison Army Air Field, 0.1 nm (0.3 km) S. Retrieved 2019/05/21 01:06 UTC (2 hours ago):

TAF KDAA 210100Z 2101/2207 26009KT 9999 BKN080 QNH2982INS BECMG 2103/2104 30009KT 9999 FEW045 QNH2990INS WND 32009KT AFT 2108 BECMG 2114/2115 33010G15KT 9999 FEW030 FEW150 QNH3011INS BECMG 2123/2124 33009KT 9999 FEW030 FEW150 QNH3011INS TX32/2120Z TN13/2111Z LAST NO AMDS AFT 2101 NEXT 2109